sensor_id;sensor_type;location;lat;lon;timestamp;temperature;humidity
2012;DHT22;1009;51.436;6.972;2024-03-06T00:00:14;5.90;99.90
2012;DHT22;1009;51.436;6.972;2024-03-06T00:02:42;5.90;99.90
2012;DHT22;1009;51.436;6.972;2024-03-06T00:05:09;5.90;99.90
2012;DHT22;1009;51.436;6.972;2024-03-06T00:07:35;5.80;99.90
2012;DHT22;1009;51.436;6.972;2024-03-06T00:10:02;5.70;99.90
2012;DHT22;1009;51.436;6.972;2024-03-06T00:12:30;5.70;99.90
2012;DHT22;1009;51.436;6.972;2024-03-06T00:14:57;5.70;99.90
2012;DHT22;1009;51.436;6.972;2024-03-06T00:17:23;5.80;99.90
2012;DHT22;1009;51.436;6.972;2024-03-06T00:19:51;5.70;99.90
2012;DHT22;1009;51.436;6.972;2024-03-06T00:22:18;5.60;99.90
2012;DHT22;1009;51.436;6.972;2024-03-06T00:24:45;5.40;99.90
2012;DHT22;1009;51.436;6.972;2024-03-06T00:27:12;5.30;99.90
2012;DHT22;1009;51.436;6.972;2024-03-06T00:29:39;5.30;99.90
2012;DHT22;1009;51.436;6.972;2024-03-06T00:32:06;5.20;99.90
2012;DHT22;1009;51.436;6.972;2024-03-06T00:34:33;5.30;99.90
2012;DHT22;1009;51.436;6.972;2024-03-06T00:37:01;5.30;99.90
2012;DHT22;1009;51.436;6.972;2024-03-06T00:39:28;5.30;99.90
2012;DHT22;1009;51.436;6.972;2024-03-06T00:41:55;5.20;99.90
2012;DHT22;1009;51.436;6.972;2024-03-06T00:44:21;5.30;99.90
2012;DHT22;1009;51.436;6.972;2024-03-06T00:46:48;5.30;99.90
2012;DHT22;1009;51.436;6.972;2024-03-06T00:49:15;5.40;99.90
2012;DHT22;1009;51.436;6.972;2024-03-06T00:51:41;5.50;99.90
2012;DHT22;1009;51.436;6.972;2024-03-06T00:54:09;5.50;99.90
2012;DHT22;1009;51.436;6.972;2024-03-06T00:56:37;5.50;99.90
2012;DHT22;1009;51.436;6.972;2024-03-06T00:59:04;5.40;99.90
2012;DHT22;1009;51.436;6.972;2024-03-06T01:01:31;5.50;99.90
2012;DHT22;1009;51.436;6.972;2024-03-06T01:03:57;5.50;99.90
2012;DHT22;1009;51.436;6.972;2024-03-06T01:06:24;5.50;99.90
2012;DHT22;1009;51.436;6.972;2024-03-06T01:08:51;5.50;99.90
2012;DHT22;1009;51.436;6.972;2024-03-06T01:11:19;5.50;99.90
2012;DHT22;1009;51.436;6.972;2024-03-06T01:13:47;5.50;99.90
2012;DHT22;1009;51.436;6.972;2024-03-06T01:16:13;5.50;99.90
2012;DHT22;1009;51.436;6.972;2024-03-06T01:18:40;5.50;99.90
2012;DHT22;1009;51.436;6.972;2024-03-06T01:21:07;5.60;99.90
2012;DHT22;1009;51.436;6.972;2024-03-06T01:23:34;5.60;99.90
2012;DHT22;1009;51.436;6.972;2024-03-06T01:26:00;5.60;99.90
2012;DHT22;1009;51.436;6.972;2024-03-06T01:28:29;5.60;99.90
2012;DHT22;1009;51.436;6.972;2024-03-06T01:30:55;5.60;99.90
2012;DHT22;1009;51.436;6.972;2024-03-06T01:33:24;5.60;99.90
2012;DHT22;1009;51.436;6.972;2024-03-06T01:35:51;5.60;99.90
2012;DHT22;1009;51.436;6.972;2024-03-06T01:38:17;5.60;99.90
2012;DHT22;1009;51.436;6.972;2024-03-06T01:40:44;5.60;99.90
2012;DHT22;1009;51.436;6.972;2024-03-06T01:43:21;5.60;99.90
2012;DHT22;1009;51.436;6.972;2024-03-06T01:45:49;5.70;99.90
2012;DHT22;1009;51.436;6.972;2024-03-06T01:48:16;5.70;99.90
2012;DHT22;1009;51.436;6.972;2024-03-06T01:50:44;5.60;99.90
2012;DHT22;1009;51.436;6.972;2024-03-06T01:53:12;5.70;99.90
2012;DHT22;1009;51.436;6.972;2024-03-06T01:55:39;5.70;99.90
2012;DHT22;1009;51.436;6.972;2024-03-06T01:58:06;5.80;99.90
2012;DHT22;1009;51.436;6.972;2024-03-06T02:00:33;5.70;99.90
2012;DHT22;1009;51.436;6.972;2024-03-06T02:03:02;5.60;99.90
2012;DHT22;1009;51.436;6.972;2024-03-06T02:05:29;5.50;99.90
2012;DHT22;1009;51.436;6.972;2024-03-06T02:07:58;5.50;99.90
2012;DHT22;1009;51.436;6.972;2024-03-06T02:10:25;5.50;99.90
2012;DHT22;1009;51.436;6.972;2024-03-06T02:12:52;5.50;99.90
2012;DHT22;1009;51.436;6.972;2024-03-06T02:15:19;5.50;99.90
2012;DHT22;1009;51.436;6.972;2024-03-06T02:17:46;5.50;99.90
2012;DHT22;1009;51.436;6.972;2024-03-06T02:20:14;5.60;99.90
2012;DHT22;1009;51.436;6.972;2024-03-06T02:22:42;5.60;99.90
2012;DHT22;1009;51.436;6.972;2024-03-06T02:25:09;5.50;99.90
2012;DHT22;1009;51.436;6.972;2024-03-06T02:27:37;5.50;99.90
2012;DHT22;1009;51.436;6.972;2024-03-06T02:30:05;5.50;99.90
2012;DHT22;1009;51.436;6.972;2024-03-06T02:32:32;5.60;99.90
2012;DHT22;1009;51.436;6.972;2024-03-06T02:35:00;5.60;99.90
2012;DHT22;1009;51.436;6.972;2024-03-06T02:37:27;5.60;99.90
2012;DHT22;1009;51.436;6.972;2024-03-06T02:39:55;5.50;99.90
2012;DHT22;1009;51.436;6.972;2024-03-06T02:42:22;5.50;99.90
2012;DHT22;1009;51.436;6.972;2024-03-06T02:44:48;5.50;99.90
2012;DHT22;1009;51.436;6.972;2024-03-06T02:47:15;5.60;99.90
2012;DHT22;1009;51.436;6.972;2024-03-06T02:49:42;5.50;99.90
2012;DHT22;1009;51.436;6.972;2024-03-06T02:52:09;5.50;99.90
2012;DHT22;1009;51.436;6.972;2024-03-06T02:54:35;5.50;99.90
2012;DHT22;1009;51.436;6.972;2024-03-06T02:57:03;5.50;99.90
2012;DHT22;1009;51.436;6.972;2024-03-06T02:59:30;5.50;99.90
2012;DHT22;1009;51.436;6.972;2024-03-06T03:01:57;5.50;99.90
2012;DHT22;1009;51.436;6.972;2024-03-06T03:04:24;5.50;99.90
2012;DHT22;1009;51.436;6.972;2024-03-06T03:06:51;5.50;99.90
2012;DHT22;1009;51.436;6.972;2024-03-06T03:09:18;5.60;99.90
2012;DHT22;1009;51.436;6.972;2024-03-06T03:11:46;5.50;99.90
2012;DHT22;1009;51.436;6.972;2024-03-06T03:14:14;5.50;99.90
2012;DHT22;1009;51.436;6.972;2024-03-06T03:16:41;5.50;99.90
2012;DHT22;1009;51.436;6.972;2024-03-06T03:19:08;5.60;99.90
2012;DHT22;1009;51.436;6.972;2024-03-06T03:21:35;5.50;99.90
2012;DHT22;1009;51.436;6.972;2024-03-06T03:24:01;5.50;99.90
2012;DHT22;1009;51.436;6.972;2024-03-06T03:26:28;5.60;99.90
2012;DHT22;1009;51.436;6.972;2024-03-06T03:28:55;5.60;99.90
2012;DHT22;1009;51.436;6.972;2024-03-06T03:31:22;5.60;99.90
2012;DHT22;1009;51.436;6.972;2024-03-06T03:33:49;5.60;99.90
2012;DHT22;1009;51.436;6.972;2024-03-06T03:36:16;5.60;99.90
2012;DHT22;1009;51.436;6.972;2024-03-06T03:38:42;5.60;99.90
2012;DHT22;1009;51.436;6.972;2024-03-06T03:41:09;5.60;99.90
2012;DHT22;1009;51.436;6.972;2024-03-06T03:43:38;5.60;99.90
2012;DHT22;1009;51.436;6.972;2024-03-06T03:46:05;5.60;99.90
2012;DHT22;1009;51.436;6.972;2024-03-06T03:48:34;5.70;99.90
2012;DHT22;1009;51.436;6.972;2024-03-06T03:51:02;5.70;99.90
2012;DHT22;1009;51.436;6.972;2024-03-06T03:53:29;5.60;99.90
2012;DHT22;1009;51.436;6.972;2024-03-06T03:55:56;5.50;99.90
2012;DHT22;1009;51.436;6.972;2024-03-06T03:58:23;5.50;99.90
2012;DHT22;1009;51.436;6.972;2024-03-06T04:00:50;5.60;99.90
2012;DHT22;1009;51.436;6.972;2024-03-06T04:03:18;5.60;99.90
2012;DHT22;1009;51.436;6.972;2024-03-06T04:05:46;5.60;99.90
2012;DHT22;1009;51.436;6.972;2024-03-06T04:08:13;5.70;99.90
2012;DHT22;1009;51.436;6.972;2024-03-06T04:10:41;5.80;99.90
2012;DHT22;1009;51.436;6.972;2024-03-06T04:13:10;5.90;99.90
2012;DHT22;1009;51.436;6.972;2024-03-06T04:15:37;5.90;99.90
2012;DHT22;1009;51.436;6.972;2024-03-06T04:18:04;5.90;99.90
2012;DHT22;1009;51.436;6.972;2024-03-06T04:20:31;5.90;99.90
2012;DHT22;1009;51.436;6.972;2024-03-06T04:22:59;6.00;99.90
2012;DHT22;1009;51.436;6.972;2024-03-06T04:25:25;6.10;99.90
2012;DHT22;1009;51.436;6.972;2024-03-06T04:27:52;5.90;99.90
2012;DHT22;1009;51.436;6.972;2024-03-06T04:30:19;6.00;99.90
2012;DHT22;1009;51.436;6.972;2024-03-06T04:32:46;6.00;99.90
2012;DHT22;1009;51.436;6.972;2024-03-06T04:35:13;6.10;99.90
2012;DHT22;1009;51.436;6.972;2024-03-06T04:37:40;6.10;99.90
2012;DHT22;1009;51.436;6.972;2024-03-06T04:40:09;6.10;99.90
2012;DHT22;1009;51.436;6.972;2024-03-06T04:42:36;6.10;99.90
2012;DHT22;1009;51.436;6.972;2024-03-06T04:45:03;6.10;99.90
2012;DHT22;1009;51.436;6.972;2024-03-06T04:47:30;6.00;99.90
2012;DHT22;1009;51.436;6.972;2024-03-06T04:49:56;6.00;99.90
2012;DHT22;1009;51.436;6.972;2024-03-06T04:52:24;6.00;99.90
2012;DHT22;1009;51.436;6.972;2024-03-06T04:54:50;6.00;99.90
2012;DHT22;1009;51.436;6.972;2024-03-06T04:57:18;6.00;99.90
2012;DHT22;1009;51.436;6.972;2024-03-06T04:59:45;6.00;99.90
2012;DHT22;1009;51.436;6.972;2024-03-06T05:02:12;5.90;99.90
2012;DHT22;1009;51.436;6.972;2024-03-06T05:04:38;6.00;99.90
2012;DHT22;1009;51.436;6.972;2024-03-06T05:07:05;6.00;99.90
2012;DHT22;1009;51.436;6.972;2024-03-06T05:09:32;6.00;99.90
2012;DHT22;1009;51.436;6.972;2024-03-06T05:11:59;5.80;99.90
2012;DHT22;1009;51.436;6.972;2024-03-06T05:14:27;5.80;99.90
2012;DHT22;1009;51.436;6.972;2024-03-06T05:16:53;5.90;99.90
2012;DHT22;1009;51.436;6.972;2024-03-06T05:19:20;5.80;99.90
2012;DHT22;1009;51.436;6.972;2024-03-06T05:21:47;5.90;99.90
2012;DHT22;1009;51.436;6.972;2024-03-06T05:24:13;5.90;99.90
2012;DHT22;1009;51.436;6.972;2024-03-06T05:26:40;5.90;99.90
2012;DHT22;1009;51.436;6.972;2024-03-06T05:29:07;5.90;99.90
2012;DHT22;1009;51.436;6.972;2024-03-06T05:31:35;5.80;99.90
2012;DHT22;1009;51.436;6.972;2024-03-06T05:34:01;5.70;99.90
2012;DHT22;1009;51.436;6.972;2024-03-06T05:36:30;5.80;99.90
2012;DHT22;1009;51.436;6.972;2024-03-06T05:38:57;5.70;99.90
2012;DHT22;1009;51.436;6.972;2024-03-06T05:41:23;5.70;99.90
2012;DHT22;1009;51.436;6.972;2024-03-06T05:43:50;5.70;99.90
2012;DHT22;1009;51.436;6.972;2024-03-06T05:46:17;5.70;99.90
2012;DHT22;1009;51.436;6.972;2024-03-06T05:48:46;5.80;99.90
2012;DHT22;1009;51.436;6.972;2024-03-06T05:51:13;5.80;99.90
2012;DHT22;1009;51.436;6.972;2024-03-06T05:53:39;5.80;99.90
2012;DHT22;1009;51.436;6.972;2024-03-06T05:56:08;5.70;99.90
2012;DHT22;1009;51.436;6.972;2024-03-06T05:58:34;5.70;99.90
2012;DHT22;1009;51.436;6.972;2024-03-06T06:01:02;5.70;99.90
2012;DHT22;1009;51.436;6.972;2024-03-06T06:03:29;5.70;99.90
2012;DHT22;1009;51.436;6.972;2024-03-06T06:05:57;5.70;99.90
2012;DHT22;1009;51.436;6.972;2024-03-06T06:08:25;5.70;99.90
2012;DHT22;1009;51.436;6.972;2024-03-06T06:10:52;5.60;99.90
2012;DHT22;1009;51.436;6.972;2024-03-06T06:13:21;5.60;99.90
2012;DHT22;1009;51.436;6.972;2024-03-06T06:15:48;5.60;99.90
2012;DHT22;1009;51.436;6.972;2024-03-06T06:18:14;5.60;99.90
2012;DHT22;1009;51.436;6.972;2024-03-06T06:20:41;5.50;99.90
2012;DHT22;1009;51.436;6.972;2024-03-06T06:23:09;5.50;99.90
2012;DHT22;1009;51.436;6.972;2024-03-06T06:25:36;5.50;99.90
2012;DHT22;1009;51.436;6.972;2024-03-06T06:28:03;5.50;99.90
2012;DHT22;1009;51.436;6.972;2024-03-06T06:30:31;5.50;99.90
2012;DHT22;1009;51.436;6.972;2024-03-06T06:32:58;5.60;99.90
2012;DHT22;1009;51.436;6.972;2024-03-06T06:35:25;5.60;99.90
2012;DHT22;1009;51.436;6.972;2024-03-06T06:37:52;5.60;99.90
2012;DHT22;1009;51.436;6.972;2024-03-06T06:40:20;5.50;99.90
2012;DHT22;1009;51.436;6.972;2024-03-06T06:42:48;5.50;99.90
2012;DHT22;1009;51.436;6.972;2024-03-06T06:45:16;5.40;99.90
2012;DHT22;1009;51.436;6.972;2024-03-06T06:47:44;5.40;99.90
2012;DHT22;1009;51.436;6.972;2024-03-06T06:50:11;5.40;99.90
2012;DHT22;1009;51.436;6.972;2024-03-06T06:52:38;5.50;99.90
2012;DHT22;1009;51.436;6.972;2024-03-06T06:55:05;5.30;99.90
2012;DHT22;1009;51.436;6.972;2024-03-06T06:57:33;5.20;99.90
2012;DHT22;1009;51.436;6.972;2024-03-06T07:00:00;5.30;99.90
2012;DHT22;1009;51.436;6.972;2024-03-06T07:02:36;5.40;99.90
2012;DHT22;1009;51.436;6.972;2024-03-06T07:05:03;5.40;99.90
2012;DHT22;1009;51.436;6.972;2024-03-06T07:07:30;5.40;99.90
2012;DHT22;1009;51.436;6.972;2024-03-06T07:09:57;5.50;99.90
2012;DHT22;1009;51.436;6.972;2024-03-06T07:12:24;5.60;99.90
2012;DHT22;1009;51.436;6.972;2024-03-06T07:14:52;5.50;99.90
2012;DHT22;1009;51.436;6.972;2024-03-06T07:17:19;5.60;99.90
2012;DHT22;1009;51.436;6.972;2024-03-06T07:19:45;5.80;99.90
2012;DHT22;1009;51.436;6.972;2024-03-06T07:22:12;5.90;99.90
2012;DHT22;1009;51.436;6.972;2024-03-06T07:24:39;5.90;99.90
2012;DHT22;1009;51.436;6.972;2024-03-06T07:27:06;6.00;99.90
2012;DHT22;1009;51.436;6.972;2024-03-06T07:29:34;6.10;99.90
2012;DHT22;1009;51.436;6.972;2024-03-06T07:32:03;6.10;99.90
2012;DHT22;1009;51.436;6.972;2024-03-06T07:34:31;6.20;99.90
2012;DHT22;1009;51.436;6.972;2024-03-06T07:36:57;6.30;99.90
2012;DHT22;1009;51.436;6.972;2024-03-06T07:39:25;6.30;99.90
2012;DHT22;1009;51.436;6.972;2024-03-06T07:41:52;6.40;99.90
2012;DHT22;1009;51.436;6.972;2024-03-06T07:44:20;6.50;99.90
2012;DHT22;1009;51.436;6.972;2024-03-06T07:46:46;6.60;99.90
2012;DHT22;1009;51.436;6.972;2024-03-06T07:49:18;6.60;99.90
2012;DHT22;1009;51.436;6.972;2024-03-06T07:51:45;6.70;99.90
2012;DHT22;1009;51.436;6.972;2024-03-06T07:54:11;6.70;99.90
2012;DHT22;1009;51.436;6.972;2024-03-06T07:56:38;6.80;99.90
2012;DHT22;1009;51.436;6.972;2024-03-06T07:59:05;7.00;99.90
2012;DHT22;1009;51.436;6.972;2024-03-06T08:01:31;7.00;99.90
2012;DHT22;1009;51.436;6.972;2024-03-06T08:03:58;7.10;99.90
2012;DHT22;1009;51.436;6.972;2024-03-06T08:06:26;7.20;99.90
2012;DHT22;1009;51.436;6.972;2024-03-06T08:08:54;7.30;99.90
2012;DHT22;1009;51.436;6.972;2024-03-06T08:11:21;7.40;99.90
2012;DHT22;1009;51.436;6.972;2024-03-06T08:13:50;7.40;99.90
2012;DHT22;1009;51.436;6.972;2024-03-06T08:16:16;7.20;99.90
2012;DHT22;1009;51.436;6.972;2024-03-06T08:18:43;7.00;99.90
2012;DHT22;1009;51.436;6.972;2024-03-06T08:21:10;6.90;99.90
2012;DHT22;1009;51.436;6.972;2024-03-06T08:23:38;6.90;99.90
2012;DHT22;1009;51.436;6.972;2024-03-06T08:26:05;6.80;99.90
2012;DHT22;1009;51.436;6.972;2024-03-06T08:28:32;6.80;99.90
2012;DHT22;1009;51.436;6.972;2024-03-06T08:31:00;6.90;99.90
2012;DHT22;1009;51.436;6.972;2024-03-06T08:33:27;6.90;99.90
2012;DHT22;1009;51.436;6.972;2024-03-06T08:35:54;6.80;99.90
2012;DHT22;1009;51.436;6.972;2024-03-06T08:38:20;6.80;99.90
2012;DHT22;1009;51.436;6.972;2024-03-06T08:40:48;6.90;99.90
2012;DHT22;1009;51.436;6.972;2024-03-06T08:43:15;7.00;99.90
2012;DHT22;1009;51.436;6.972;2024-03-06T08:45:44;7.10;99.90
2012;DHT22;1009;51.436;6.972;2024-03-06T08:48:11;7.00;99.90
2012;DHT22;1009;51.436;6.972;2024-03-06T08:50:38;6.90;99.90
2012;DHT22;1009;51.436;6.972;2024-03-06T08:53:05;6.80;99.90
2012;DHT22;1009;51.436;6.972;2024-03-06T08:55:32;6.90;99.90
2012;DHT22;1009;51.436;6.972;2024-03-06T08:58:00;7.00;99.90
2012;DHT22;1009;51.436;6.972;2024-03-06T09:00:27;7.00;99.90
2012;DHT22;1009;51.436;6.972;2024-03-06T09:02:53;6.80;99.90
2012;DHT22;1009;51.436;6.972;2024-03-06T09:05:20;6.90;99.90
2012;DHT22;1009;51.436;6.972;2024-03-06T09:07:47;6.70;99.90
2012;DHT22;1009;51.436;6.972;2024-03-06T09:10:14;6.70;99.90
2012;DHT22;1009;51.436;6.972;2024-03-06T09:12:41;6.90;99.90
2012;DHT22;1009;51.436;6.972;2024-03-06T09:15:09;7.00;99.90
2012;DHT22;1009;51.436;6.972;2024-03-06T09:17:37;7.10;99.90
2012;DHT22;1009;51.436;6.972;2024-03-06T09:20:04;7.10;99.90
2012;DHT22;1009;51.436;6.972;2024-03-06T09:22:36;7.20;99.90
2012;DHT22;1009;51.436;6.972;2024-03-06T09:25:04;7.10;99.90
2012;DHT22;1009;51.436;6.972;2024-03-06T09:27:30;7.10;99.90
2012;DHT22;1009;51.436;6.972;2024-03-06T09:29:58;7.20;99.90
2012;DHT22;1009;51.436;6.972;2024-03-06T09:32:26;7.30;99.90
2012;DHT22;1009;51.436;6.972;2024-03-06T09:34:53;7.50;99.90
2012;DHT22;1009;51.436;6.972;2024-03-06T09:37:19;7.60;99.90
2012;DHT22;1009;51.436;6.972;2024-03-06T09:39:46;7.50;99.90
2012;DHT22;1009;51.436;6.972;2024-03-06T09:42:13;7.50;99.90
2012;DHT22;1009;51.436;6.972;2024-03-06T09:44:40;7.50;99.90
2012;DHT22;1009;51.436;6.972;2024-03-06T09:47:12;7.60;99.90
2012;DHT22;1009;51.436;6.972;2024-03-06T09:49:40;7.70;99.90
2012;DHT22;1009;51.436;6.972;2024-03-06T09:52:07;7.90;99.90
2012;DHT22;1009;51.436;6.972;2024-03-06T09:54:35;7.80;99.90
2012;DHT22;1009;51.436;6.972;2024-03-06T09:57:02;7.80;99.90
2012;DHT22;1009;51.436;6.972;2024-03-06T09:59:29;8.10;99.90
2012;DHT22;1009;51.436;6.972;2024-03-06T10:01:58;8.10;99.90
2012;DHT22;1009;51.436;6.972;2024-03-06T10:04:29;8.20;99.90
2012;DHT22;1009;51.436;6.972;2024-03-06T10:07:00;8.30;99.90
2012;DHT22;1009;51.436;6.972;2024-03-06T10:09:28;8.50;99.90
2012;DHT22;1009;51.436;6.972;2024-03-06T10:11:56;8.60;99.90
2012;DHT22;1009;51.436;6.972;2024-03-06T10:14:23;8.70;99.90
2012;DHT22;1009;51.436;6.972;2024-03-06T10:16:57;8.80;99.90
2012;DHT22;1009;51.436;6.972;2024-03-06T10:19:25;8.90;99.90
2012;DHT22;1009;51.436;6.972;2024-03-06T10:21:53;8.80;99.90
2012;DHT22;1009;51.436;6.972;2024-03-06T10:24:22;8.60;99.90
2012;DHT22;1009;51.436;6.972;2024-03-06T10:26:50;8.50;99.90
2012;DHT22;1009;51.436;6.972;2024-03-06T10:29:17;8.50;99.90
2012;DHT22;1009;51.436;6.972;2024-03-06T10:31:51;8.60;99.90
2012;DHT22;1009;51.436;6.972;2024-03-06T10:34:20;8.70;99.90
2012;DHT22;1009;51.436;6.972;2024-03-06T10:36:54;8.80;99.90
2012;DHT22;1009;51.436;6.972;2024-03-06T10:39:22;8.90;99.90
2012;DHT22;1009;51.436;6.972;2024-03-06T10:41:52;9.00;99.90
2012;DHT22;1009;51.436;6.972;2024-03-06T10:44:21;9.30;99.90
2012;DHT22;1009;51.436;6.972;2024-03-06T10:46:55;9.40;99.90
2012;DHT22;1009;51.436;6.972;2024-03-06T10:49:24;9.50;99.90
2012;DHT22;1009;51.436;6.972;2024-03-06T10:51:54;9.60;99.90
2012;DHT22;1009;51.436;6.972;2024-03-06T10:54:24;9.70;99.90
2012;DHT22;1009;51.436;6.972;2024-03-06T10:56:53;9.70;99.90
2012;DHT22;1009;51.436;6.972;2024-03-06T10:59:21;9.80;99.90
2012;DHT22;1009;51.436;6.972;2024-03-06T11:01:53;9.80;99.90
2012;DHT22;1009;51.436;6.972;2024-03-06T11:04:21;9.90;99.90
2012;DHT22;1009;51.436;6.972;2024-03-06T11:06:49;10.00;99.90
2012;DHT22;1009;51.436;6.972;2024-03-06T11:09:16;10.20;99.90
2012;DHT22;1009;51.436;6.972;2024-03-06T11:11:51;10.50;99.90
2012;DHT22;1009;51.436;6.972;2024-03-06T11:14:18;10.60;99.90
2012;DHT22;1009;51.436;6.972;2024-03-06T11:17:03;10.80;99.90
2012;DHT22;1009;51.436;6.972;2024-03-06T11:19:31;10.90;99.90
2012;DHT22;1009;51.436;6.972;2024-03-06T11:21:58;11.00;99.90
2012;DHT22;1009;51.436;6.972;2024-03-06T11:24:32;11.30;99.90
2012;DHT22;1009;51.436;6.972;2024-03-06T11:27:02;11.60;99.90
2012;DHT22;1009;51.436;6.972;2024-03-06T11:30:04;11.70;99.90
2012;DHT22;1009;51.436;6.972;2024-03-06T11:32:36;11.90;99.90
2012;DHT22;1009;51.436;6.972;2024-03-06T11:35:03;12.00;99.90
2012;DHT22;1009;51.436;6.972;2024-03-06T11:37:33;12.00;99.90
2012;DHT22;1009;51.436;6.972;2024-03-06T11:40:02;12.00;99.90
2012;DHT22;1009;51.436;6.972;2024-03-06T11:42:35;12.00;99.90
2012;DHT22;1009;51.436;6.972;2024-03-06T11:45:12;11.80;99.90
2012;DHT22;1009;51.436;6.972;2024-03-06T11:47:59;11.70;99.90
2012;DHT22;1009;51.436;6.972;2024-03-06T11:50:27;11.30;99.90
2012;DHT22;1009;51.436;6.972;2024-03-06T11:52:55;11.10;99.90
2012;DHT22;1009;51.436;6.972;2024-03-06T11:55:22;11.00;99.90
2012;DHT22;1009;51.436;6.972;2024-03-06T11:57:52;11.20;99.90
2012;DHT22;1009;51.436;6.972;2024-03-06T12:00:21;11.20;99.90
2012;DHT22;1009;51.436;6.972;2024-03-06T12:02:48;11.20;99.90
2012;DHT22;1009;51.436;6.972;2024-03-06T12:05:15;11.20;99.90
2012;DHT22;1009;51.436;6.972;2024-03-06T12:07:46;11.20;99.90
2012;DHT22;1009;51.436;6.972;2024-03-06T12:10:12;11.30;99.90
2012;DHT22;1009;51.436;6.972;2024-03-06T12:12:40;11.30;99.90
2012;DHT22;1009;51.436;6.972;2024-03-06T12:15:11;11.20;99.90
2012;DHT22;1009;51.436;6.972;2024-03-06T12:17:42;11.20;99.90
2012;DHT22;1009;51.436;6.972;2024-03-06T12:20:12;11.10;99.90
2012;DHT22;1009;51.436;6.972;2024-03-06T12:22:44;11.20;99.90
2012;DHT22;1009;51.436;6.972;2024-03-06T12:25:13;11.20;99.90
2012;DHT22;1009;51.436;6.972;2024-03-06T12:27:44;11.30;99.90
2012;DHT22;1009;51.436;6.972;2024-03-06T12:30:12;11.30;99.90
2012;DHT22;1009;51.436;6.972;2024-03-06T12:32:39;11.40;99.90
2012;DHT22;1009;51.436;6.972;2024-03-06T12:35:07;11.30;99.90
2012;DHT22;1009;51.436;6.972;2024-03-06T12:37:35;11.40;99.90
2012;DHT22;1009;51.436;6.972;2024-03-06T12:40:03;11.40;99.90
2012;DHT22;1009;51.436;6.972;2024-03-06T12:42:30;11.40;99.90
2012;DHT22;1009;51.436;6.972;2024-03-06T12:44:57;11.40;99.90
2012;DHT22;1009;51.436;6.972;2024-03-06T12:47:26;11.50;99.90
2012;DHT22;1009;51.436;6.972;2024-03-06T12:49:52;11.60;99.90
2012;DHT22;1009;51.436;6.972;2024-03-06T12:52:19;11.60;99.90
2012;DHT22;1009;51.436;6.972;2024-03-06T12:54:46;11.50;99.90
2012;DHT22;1009;51.436;6.972;2024-03-06T12:57:13;11.50;99.90
2012;DHT22;1009;51.436;6.972;2024-03-06T12:59:39;11.60;99.90
2012;DHT22;1009;51.436;6.972;2024-03-06T13:02:06;12.10;99.90
2012;DHT22;1009;51.436;6.972;2024-03-06T13:04:34;12.40;99.90
2012;DHT22;1009;51.436;6.972;2024-03-06T13:07:01;12.30;99.90
2012;DHT22;1009;51.436;6.972;2024-03-06T13:09:28;12.20;99.90
2012;DHT22;1009;51.436;6.972;2024-03-06T13:11:55;12.10;99.90
2012;DHT22;1009;51.436;6.972;2024-03-06T13:14:21;12.40;99.90
2012;DHT22;1009;51.436;6.972;2024-03-06T13:16:48;12.60;99.90
2012;DHT22;1009;51.436;6.972;2024-03-06T13:19:15;12.80;99.90
2012;DHT22;1009;51.436;6.972;2024-03-06T13:21:43;12.70;99.90
2012;DHT22;1009;51.436;6.972;2024-03-06T13:24:09;12.80;99.90
2012;DHT22;1009;51.436;6.972;2024-03-06T13:26:36;12.90;99.90
2012;DHT22;1009;51.436;6.972;2024-03-06T13:29:04;12.60;99.90
2012;DHT22;1009;51.436;6.972;2024-03-06T13:31:31;12.40;99.90
2012;DHT22;1009;51.436;6.972;2024-03-06T13:33:59;12.40;99.90
2012;DHT22;1009;51.436;6.972;2024-03-06T13:36:26;12.30;99.90
2012;DHT22;1009;51.436;6.972;2024-03-06T13:38:54;12.40;99.90
2012;DHT22;1009;51.436;6.972;2024-03-06T13:41:21;12.50;99.90
2012;DHT22;1009;51.436;6.972;2024-03-06T13:43:48;12.70;99.90
2012;DHT22;1009;51.436;6.972;2024-03-06T13:46:15;13.00;99.90
2012;DHT22;1009;51.436;6.972;2024-03-06T13:48:41;13.10;99.90
2012;DHT22;1009;51.436;6.972;2024-03-06T13:51:08;13.10;99.90
2012;DHT22;1009;51.436;6.972;2024-03-06T13:53:35;12.70;99.90
2012;DHT22;1009;51.436;6.972;2024-03-06T13:56:03;12.80;99.90
2012;DHT22;1009;51.436;6.972;2024-03-06T13:58:30;12.80;99.90
2012;DHT22;1009;51.436;6.972;2024-03-06T14:00:57;12.60;99.90
2012;DHT22;1009;51.436;6.972;2024-03-06T14:03:25;12.50;99.90
2012;DHT22;1009;51.436;6.972;2024-03-06T14:05:51;12.40;99.90
2012;DHT22;1009;51.436;6.972;2024-03-06T14:08:18;12.30;99.90
2012;DHT22;1009;51.436;6.972;2024-03-06T14:10:45;12.30;99.90
2012;DHT22;1009;51.436;6.972;2024-03-06T14:13:14;11.90;99.90
2012;DHT22;1009;51.436;6.972;2024-03-06T14:15:41;11.80;99.90
2012;DHT22;1009;51.436;6.972;2024-03-06T14:18:07;11.90;99.90
2012;DHT22;1009;51.436;6.972;2024-03-06T14:20:33;11.80;99.90
2012;DHT22;1009;51.436;6.972;2024-03-06T14:23:00;11.70;99.90
2012;DHT22;1009;51.436;6.972;2024-03-06T14:25:27;11.80;99.90
2012;DHT22;1009;51.436;6.972;2024-03-06T14:27:55;11.80;99.90
2012;DHT22;1009;51.436;6.972;2024-03-06T14:30:23;11.90;99.90
2012;DHT22;1009;51.436;6.972;2024-03-06T14:32:50;12.00;99.90
2012;DHT22;1009;51.436;6.972;2024-03-06T14:35:16;12.00;99.90
2012;DHT22;1009;51.436;6.972;2024-03-06T14:37:43;11.60;99.90
2012;DHT22;1009;51.436;6.972;2024-03-06T14:40:11;11.50;99.90
2012;DHT22;1009;51.436;6.972;2024-03-06T14:42:38;11.40;99.90
2012;DHT22;1009;51.436;6.972;2024-03-06T14:45:05;11.20;99.90
2012;DHT22;1009;51.436;6.972;2024-03-06T14:47:33;11.20;99.90
2012;DHT22;1009;51.436;6.972;2024-03-06T14:50:01;11.20;99.90
2012;DHT22;1009;51.436;6.972;2024-03-06T14:52:30;11.20;99.90
2012;DHT22;1009;51.436;6.972;2024-03-06T14:54:57;11.10;99.90
2012;DHT22;1009;51.436;6.972;2024-03-06T14:57:23;11.20;99.90
2012;DHT22;1009;51.436;6.972;2024-03-06T14:59:50;11.30;99.90
2012;DHT22;1009;51.436;6.972;2024-03-06T15:02:17;11.40;99.90
2012;DHT22;1009;51.436;6.972;2024-03-06T15:04:45;11.50;99.90
2012;DHT22;1009;51.436;6.972;2024-03-06T15:07:12;11.50;99.90
2012;DHT22;1009;51.436;6.972;2024-03-06T15:09:39;11.50;99.90
2012;DHT22;1009;51.436;6.972;2024-03-06T15:12:06;11.50;99.90
2012;DHT22;1009;51.436;6.972;2024-03-06T15:14:33;11.50;99.90
2012;DHT22;1009;51.436;6.972;2024-03-06T15:17:00;11.50;99.90
2012;DHT22;1009;51.436;6.972;2024-03-06T15:19:26;11.60;99.90
2012;DHT22;1009;51.436;6.972;2024-03-06T15:21:54;11.60;99.90
2012;DHT22;1009;51.436;6.972;2024-03-06T15:24:22;11.40;99.90
2012;DHT22;1009;51.436;6.972;2024-03-06T15:26:49;11.30;99.90
2012;DHT22;1009;51.436;6.972;2024-03-06T15:29:16;11.30;99.90
2012;DHT22;1009;51.436;6.972;2024-03-06T15:31:43;11.30;99.90
2012;DHT22;1009;51.436;6.972;2024-03-06T15:34:09;11.40;99.90
2012;DHT22;1009;51.436;6.972;2024-03-06T15:36:37;11.30;99.90
2012;DHT22;1009;51.436;6.972;2024-03-06T15:39:05;11.30;99.90
2012;DHT22;1009;51.436;6.972;2024-03-06T15:41:32;11.30;99.90
2012;DHT22;1009;51.436;6.972;2024-03-06T15:43:58;11.30;99.90
2012;DHT22;1009;51.436;6.972;2024-03-06T15:46:25;11.40;99.90
2012;DHT22;1009;51.436;6.972;2024-03-06T15:48:52;11.30;99.90
2012;DHT22;1009;51.436;6.972;2024-03-06T15:51:19;11.30;99.90
2012;DHT22;1009;51.436;6.972;2024-03-06T15:53:46;11.40;99.90
2012;DHT22;1009;51.436;6.972;2024-03-06T15:56:14;11.50;99.90
2012;DHT22;1009;51.436;6.972;2024-03-06T15:58:42;11.60;99.90
2012;DHT22;1009;51.436;6.972;2024-03-06T16:01:09;11.70;99.90
2012;DHT22;1009;51.436;6.972;2024-03-06T16:03:35;11.80;99.90
2012;DHT22;1009;51.436;6.972;2024-03-06T16:06:02;11.60;99.90
2012;DHT22;1009;51.436;6.972;2024-03-06T16:08:29;11.50;99.90
2012;DHT22;1009;51.436;6.972;2024-03-06T16:10:57;11.50;99.90
2012;DHT22;1009;51.436;6.972;2024-03-06T16:13:27;11.60;99.90